首页
METAR-TAF:

METAR-TAF

机场 :

伊利, 宾夕法尼亚州, 美国

纬度: 42-04-48N, 经度: 080-10-57W, 海拔: 223米

当前天气观测

该预报发布于53分钟前的07:51 UTC
风速8节,风向南转西南
温度 -6°C
湿度 68%
气压 1036 hPa
能見度: 16.1公里
少量云层高于3000英尺
散云层高于3500英尺

METAR: KERI 120751Z AUTO 20008KT 10SM FEW030 SCT035 M06/M11 A3058 RMK AO2 SLP369 T10611106

时间: 03:44 (08:44 UTC)

预报

该预报发布于3小时和10分钟前的05:34 UTC
预报有效从12日的 06点(UTC)到 13日的 06点(UTC)
风速9节,风向西
能見度: 10公里
少量云层高于2500英尺
阴天层高于4000英尺
从 12日的 0900点(UTC)
风速8节,风向西南
能見度: 10公里
散云层高于4000英尺
多云层高于20000英尺
从 12日的 1100点(UTC)
风速10节,风向
能見度: 10公里
少量云层高于8000英尺
散云层高于20000英尺
从 12日的 1900点(UTC)
风速12节,风向,有时为25节阵风
能見度: 10公里
多云层高于25000英尺

TAF: KERI 120534Z 1206/1306 26009KT P6SM FEW025 OVC040 FM120900 23008KT P6SM SCT040 BKN200 FM121100 19010KT P6SM FEW080 SCT200 FM121900 17012G25KT P6SM BKN250

超过4000个机场的气象观测和天气预报(METAR&TAF报告)。

可查询的气象台以黄色和红色小点在地图上表示。

将鼠标移到小点上方,可查看气象台名称。

然后点击查看天气观测和预报。

如需切换地图:点击带黑十字的绿色按钮放大地图;点击带横线的绿色按钮缩小地图;或者点击绿色箭头查看邻近地区的地图。


METAR-TAF: